Time;durP1;ratioP1;P1;durP2;ratioP2;P2;SDS_P1;SDS_P2;PMS_P1;PMS_P2;Temp;Humidity;BMP_temperature;BMP_pressure;BME280_temperature;BME280_humidity;BME280_pressure;Samples;Min_cycle;Max_cycle;Signal;HPM_P1;HPM_P2
2022/09/25 00:01:40;;;;;;;10.25;6.07;;;;;;;;;;5050641;28;20025;-77
2022/09/25 00:04:06;;;;;;;17.15;11.25;;;;;;;;;;5055446;28;20037;-76
2022/09/25 00:06:32;;;;;;;15.65;12.32;;;;;;;;;;5055385;28;20077;-76
2022/09/25 00:09:00;;;;;;;11.10;6.55;;;;;;;;;;5053480;28;20085;-76
2022/09/25 00:11:27;;;;;;;12.80;8.85;;;;;;;;;;5053742;28;20482;-77
2022/09/25 00:13:54;;;;;;;11.20;7.13;;;;;;;;;;5053556;28;20019;-76
2022/09/25 00:16:22;;;;;;;8.60;5.78;;;;;;;;;;5055439;28;20040;-76
2022/09/25 00:21:33;;;;;;;10.82;5.32;;;;;;;;;;5051767;28;20499;-76
2022/09/25 00:24:05;;;;;;;7.55;4.80;;;;;;;;;;5043234;28;20028;-76
2022/09/25 00:26:32;;;;;;;7.03;4.43;;;;;;;;;;5061466;28;20473;-76
2022/09/25 00:29:00;;;;;;;8.25;4.55;;;;;;;;;;5069143;28;20028;-76
2022/09/25 00:31:26;;;;;;;7.13;4.30;;;;;;;;;;5067717;28;20475;-76
2022/09/25 00:34:02;;;;;;;7.78;4.70;;;;;;;;;;5051845;28;20071;-76
2022/09/25 00:36:29;;;;;;;7.28;5.30;;;;;;;;;;5050219;28;20020;-77
2022/09/25 00:38:55;;;;;;;7.57;5.10;;;;;;;;;;5044056;28;20531;-76
2022/09/25 00:41:22;;;;;;;8.82;5.03;;;;;;;;;;5062550;28;20112;-76
2022/09/25 00:43:49;;;;;;;8.57;5.32;;;;;;;;;;5051268;28;20441;-76
2022/09/25 00:46:23;;;;;;;6.90;4.95;;;;;;;;;;5054055;28;20397;-76
2022/09/25 00:48:53;;;;;;;7.45;6.18;;;;;;;;;;5050266;28;20033;-77
2022/09/25 00:51:20;;;;;;;9.48;6.78;;;;;;;;;;5054015;28;20031;-76
2022/09/25 00:53:46;;;;;;;10.18;5.63;;;;;;;;;;5062331;28;20107;-76
2022/09/25 00:56:13;;;;;;;9.52;6.10;;;;;;;;;;5051742;28;20028;-77
2022/09/25 00:58:40;;;;;;;7.20;4.65;;;;;;;;;;5057346;28;20036;-76
2022/09/25 01:01:06;;;;;;;8.73;5.43;;;;;;;;;;5080547;28;20039;-74
2022/09/25 01:03:33;;;;;;;7.20;5.00;;;;;;;;;;5059584;28;20048;-76
2022/09/25 01:06:00;;;;;;;8.93;5.35;;;;;;;;;;5090105;28;20049;-77
2022/09/25 01:08:27;;;;;;;7.40;5.20;;;;;;;;;;5058284;28;20037;-76
2022/09/25 01:10:53;;;;;;;6.43;4.53;;;;;;;;;;5056223;28;20055;-76
2022/09/25 01:13:19;;;;;;;5.75;4.95;;;;;;;;;;5069837;28;20044;-76
2022/09/25 01:15:54;;;;;;;7.88;5.65;;;;;;;;;;5051662;28;20044;-76
2022/09/25 01:18:26;;;;;;;10.38;7.57;;;;;;;;;;5056475;28;20025;-77
2022/09/25 01:20:52;;;;;;;15.05;11.93;;;;;;;;;;5055111;28;20021;-77
2022/09/25 01:23:22;;;;;;;9.95;7.30;;;;;;;;;;5054651;28;20031;-76
2022/09/25 01:26:17;;;;;;;13.70;10.40;;;;;;;;;;5080964;28;20488;-76
2022/09/25 01:29:02;;;;;;;17.98;13.95;;;;;;;;;;5068199;28;20039;-76
2022/09/25 01:31:31;;;;;;;10.68;8.07;;;;;;;;;;5094058;28;20752;-75
2022/09/25 01:34:21;;;;;;;12.07;10.77;;;;;;;;;;5079985;28;20032;-76
2022/09/25 01:36:48;;;;;;;14.07;8.70;;;;;;;;;;5096091;28;20059;-76
2022/09/25 01:39:43;;;;;;;9.63;6.13;;;;;;;;;;5080120;28;20024;-77
2022/09/25 01:42:21;;;;;;;11.73;5.70;;;;;;;;;;5065162;28;20040;-76
2022/09/25 01:44:56;;;;;;;11.60;7.35;;;;;;;;;;5092325;28;20277;-76
2022/09/25 01:47:37;;;;;;;9.40;6.00;;;;;;;;;;5098160;28;20031;-76
2022/09/25 01:50:08;;;;;;;9.95;6.65;;;;;;;;;;5075393;28;20028;-76
2022/09/25 01:52:37;;;;;;;14.02;7.63;;;;;;;;;;5074020;28;20037;-76
2022/09/25 01:55:07;;;;;;;10.88;5.97;;;;;;;;;;5092167;28;20470;-76
2022/09/25 01:57:33;;;;;;;8.35;5.80;;;;;;;;;;5082040;28;20453;-76
2022/09/25 02:00:02;;;;;;;8.38;6.20;;;;;;;;;;5102862;28;20061;-76
2022/09/25 02:02:33;;;;;;;8.10;6.10;;;;;;;;;;5098919;28;20091;-76
2022/09/25 02:05:16;;;;;;;7.47;5.35;;;;;;;;;;5080004;28;20024;-77
2022/09/25 02:07:46;;;;;;;7.15;5.20;;;;;;;;;;5098266;28;20023;-77
2022/09/25 02:10:14;;;;;;;9.48;7.20;;;;;;;;;;5093495;28;20028;-77
2022/09/25 02:12:44;;;;;;;12.95;8.35;;;;;;;;;;5089044;28;20028;-76
2022/09/25 02:15:13;;;;;;;9.20;6.45;;;;;;;;;;5098888;28;20023;-77
2022/09/25 02:20:32;;;;;;;13.25;6.82;;;;;;;;;;5083331;28;20035;-76
2022/09/25 02:23:18;;;;;;;21.27;9.27;;;;;;;;;;5059872;28;20024;-76
2022/09/25 02:25:47;;;;;;;14.57;8.35;;;;;;;;;;5103651;28;20044;-76
2022/09/25 02:28:13;;;;;;;8.85;6.55;;;;;;;;;;5077918;28;20021;-76
2022/09/25 02:30:39;;;;;;;14.20;8.05;;;;;;;;;;5096236;28;20449;-77
2022/09/25 02:33:05;;;;;;;12.75;8.15;;;;;;;;;;5078499;28;20043;-75
2022/09/25 02:35:31;;;;;;;12.98;7.35;;;;;;;;;;5088255;28;20028;-76
2022/09/25 02:37:58;;;;;;;11.30;6.88;;;;;;;;;;5092271;28;20044;-76
2022/09/25 02:40:28;;;;;;;8.93;6.60;;;;;;;;;;5090869;28;20035;-77
2022/09/25 02:43:19;;;;;;;9.75;6.32;;;;;;;;;;5076324;28;20023;-77
2022/09/25 02:46:08;;;;;;;7.50;4.85;;;;;;;;;;5090264;28;20788;-76
2022/09/25 02:48:38;;;;;;;8.10;5.50;;;;;;;;;;5094915;28;20039;-75
2022/09/25 02:51:12;;;;;;;7.25;5.45;;;;;;;;;;5075619;28;20523;-76
2022/09/25 02:53:43;;;;;;;11.88;7.88;;;;;;;;;;5093524;28;20027;-76
2022/09/25 02:56:09;;;;;;;12.88;7.43;;;;;;;;;;5093240;28;20044;-76
2022/09/25 02:58:47;;;;;;;16.88;9.13;;;;;;;;;;5094055;28;20020;-75
2022/09/25 03:01:15;;;;;;;11.18;7.72;;;;;;;;;;5090928;28;20016;-76
2022/09/25 03:03:41;;;;;;;16.67;8.40;;;;;;;;;;5084757;28;20028;-76
2022/09/25 03:06:08;;;;;;;16.05;8.25;;;;;;;;;;5080395;28;20107;-76
2022/09/25 03:08:40;;;;;;;12.63;7.03;;;;;;;;;;5077928;28;20043;-76
2022/09/25 03:11:14;;;;;;;11.27;6.88;;;;;;;;;;5078492;28;20071;-76
2022/09/25 03:13:40;;;;;;;9.48;6.15;;;;;;;;;;5069528;28;20032;-76
2022/09/25 03:16:19;;;;;;;12.25;7.00;;;;;;;;;;5074264;28;20032;-76
2022/09/25 03:18:46;;;;;;;8.77;5.93;;;;;;;;;;5082665;28;20397;-76
2022/09/25 03:21:13;;;;;;;7.03;4.97;;;;;;;;;;5080423;28;20064;-76
2022/09/25 03:23:39;;;;;;;8.88;5.45;;;;;;;;;;5074150;28;20101;-76
2022/09/25 03:26:07;;;;;;;12.07;6.88;;;;;;;;;;5092985;28;20062;-76
2022/09/25 03:28:33;;;;;;;16.77;8.30;;;;;;;;;;5075703;28;20055;-76
2022/09/25 03:31:01;;;;;;;13.30;7.95;;;;;;;;;;5087401;28;20066;-76
2022/09/25 03:33:32;;;;;;;14.60;8.77;;;;;;;;;;5104181;28;20436;-77
2022/09/25 03:36:12;;;;;;;13.15;7.32;;;;;;;;;;5094726;28;20020;-76
2022/09/25 03:38:40;;;;;;;11.50;5.90;;;;;;;;;;5065002;28;20062;-76
2022/09/25 03:41:07;;;;;;;16.15;8.75;;;;;;;;;;5086119;28;20044;-76
2022/09/25 03:43:37;;;;;;;12.88;7.80;;;;;;;;;;5085045;28;20013;-76
2022/09/25 03:46:07;;;;;;;19.13;10.18;;;;;;;;;;5096246;28;20032;-76
2022/09/25 03:48:34;;;;;;;14.93;9.70;;;;;;;;;;5084207;28;20012;-76
2022/09/25 03:51:00;;;;;;;17.88;10.77;;;;;;;;;;5075902;28;20476;-77
2022/09/25 03:53:28;;;;;;;27.38;13.10;;;;;;;;;;5069955;28;20074;-76
2022/09/25 03:55:55;;;;;;;14.75;9.60;;;;;;;;;;5066121;28;20080;-76
2022/09/25 03:58:21;;;;;;;22.83;12.60;;;;;;;;;;5088924;28;20034;-76
2022/09/25 04:00:47;;;;;;;16.80;9.07;;;;;;;;;;5085546;28;20020;-76
2022/09/25 04:03:14;;;;;;;17.42;8.55;;;;;;;;;;5075240;28;20020;-76
2022/09/25 04:05:41;;;;;;;11.90;7.50;;;;;;;;;;5105949;28;20050;-76
2022/09/25 04:08:07;;;;;;;10.15;6.53;;;;;;;;;;5078501;28;20028;-76
2022/09/25 04:10:37;;;;;;;12.48;5.95;;;;;;;;;;5084499;28;20047;-76
2022/09/25 04:13:04;;;;;;;10.07;6.20;;;;;;;;;;5073929;28;20016;-76
2022/09/25 04:15:30;;;;;;;12.00;6.85;;;;;;;;;;5092639;28;20030;-76
2022/09/25 04:17:57;;;;;;;16.58;7.35;;;;;;;;;;5081244;28;20062;-76
2022/09/25 04:20:23;;;;;;;10.63;6.22;;;;;;;;;;5095543;28;20031;-75
2022/09/25 04:22:49;;;;;;;10.85;6.25;;;;;;;;;;5073976;28;20020;-76
2022/09/25 04:25:15;;;;;;;10.20;6.22;;;;;;;;;;5073635;28;20388;-77
2022/09/25 04:27:43;;;;;;;13.68;7.25;;;;;;;;;;5085612;28;20028;-75
2022/09/25 04:30:10;;;;;;;10.98;6.95;;;;;;;;;;5093528;28;20031;-76
2022/09/25 04:35:21;;;;;;;11.63;6.65;;;;;;;;;;5087583;28;20047;-76
2022/09/25 04:37:47;;;;;;;10.95;6.00;;;;;;;;;;5078172;28;20021;-76
2022/09/25 04:40:13;;;;;;;7.63;5.95;;;;;;;;;;5092045;28;20028;-76
2022/09/25 04:42:41;;;;;;;11.25;6.90;;;;;;;;;;5064806;28;20041;-77
2022/09/25 04:45:08;;;;;;;9.38;4.88;;;;;;;;;;5060656;28;20025;-76
2022/09/25 04:47:34;;;;;;;8.13;4.75;;;;;;;;;;5062829;28;20032;-76
2022/09/25 04:50:00;;;;;;;9.73;5.30;;;;;;;;;;5088611;28;20017;-76
2022/09/25 04:52:30;;;;;;;12.68;5.97;;;;;;;;;;5100457;28;20143;-76
2022/09/25 04:54:57;;;;;;;8.10;4.97;;;;;;;;;;5081177;28;20039;-76
2022/09/25 04:57:25;;;;;;;7.68;4.85;;;;;;;;;;5095851;28;20031;-76
2022/09/25 04:59:51;;;;;;;11.68;5.88;;;;;;;;;;5092406;28;20016;-76
2022/09/25 05:02:17;;;;;;;9.85;4.75;;;;;;;;;;5088558;28;20016;-76
2022/09/25 05:04:43;;;;;;;6.82;5.13;;;;;;;;;;5094653;28;20032;-76
2022/09/25 05:07:09;;;;;;;6.88;4.35;;;;;;;;;;5075811;28;20108;-77
2022/09/25 05:09:36;;;;;;;11.95;4.95;;;;;;;;;;5092653;28;20043;-76
2022/09/25 05:12:02;;;;;;;6.68;4.70;;;;;;;;;;5073428;28;20154;-76
2022/09/25 05:14:29;;;;;;;6.30;4.25;;;;;;;;;;5080904;28;20028;-77
2022/09/25 05:16:56;;;;;;;8.55;4.63;;;;;;;;;;5095684;28;20767;-77
2022/09/25 05:19:22;;;;;;;6.30;4.00;;;;;;;;;;5097120;28;20034;-75
2022/09/25 05:21:49;;;;;;;9.65;4.25;;;;;;;;;;5074928;28;20020;-76
2022/09/25 05:24:15;;;;;;;7.70;4.60;;;;;;;;;;5098700;28;20024;-74
2022/09/25 05:26:41;;;;;;;7.00;4.32;;;;;;;;;;5095868;28;20036;-74
2022/09/25 05:29:07;;;;;;;5.30;4.20;;;;;;;;;;5081331;28;20036;-75
2022/09/25 05:31:33;;;;;;;5.47;3.45;;;;;;;;;;5081458;28;20489;-74
2022/09/25 05:33:59;;;;;;;4.20;2.92;;;;;;;;;;5090651;28;20026;-75
2022/09/25 05:36:25;;;;;;;5.18;3.78;;;;;;;;;;5084396;28;20291;-75
2022/09/25 05:38:52;;;;;;;5.90;3.72;;;;;;;;;;5073606;28;20118;-74
2022/09/25 05:41:19;;;;;;;7.40;3.80;;;;;;;;;;5099471;28;20066;-74
2022/09/25 05:43:49;;;;;;;6.20;3.55;;;;;;;;;;5083038;28;20027;-75
2022/09/25 05:46:15;;;;;;;4.82;3.65;;;;;;;;;;5085690;28;20031;-76
2022/09/25 05:48:41;;;;;;;4.45;3.30;;;;;;;;;;5097981;28;20039;-76
2022/09/25 05:51:08;;;;;;;4.35;3.15;;;;;;;;;;5089324;28;20020;-76
2022/09/25 05:53:34;;;;;;;6.10;3.22;;;;;;;;;;5096059;28;20039;-77
2022/09/25 05:56:02;;;;;;;5.13;3.55;;;;;;;;;;5085203;28;20704;-75
2022/09/25 05:58:29;;;;;;;6.30;3.85;;;;;;;;;;5096981;28;20481;-76
2022/09/25 06:00:55;;;;;;;6.35;3.75;;;;;;;;;;5069954;28;20024;-76
2022/09/25 06:03:21;;;;;;;6.68;3.75;;;;;;;;;;5091888;28;20033;-76
2022/09/25 06:05:48;;;;;;;5.07;3.88;;;;;;;;;;5074883;28;20021;-76
2022/09/25 06:08:14;;;;;;;7.15;4.13;;;;;;;;;;5077900;28;20048;-75
2022/09/25 06:10:41;;;;;;;6.82;3.90;;;;;;;;;;5087595;28;20235;-75
2022/09/25 06:13:08;;;;;;;4.53;3.53;;;;;;;;;;5093978;28;20035;-75
2022/09/25 06:15:40;;;;;;;8.30;4.72;;;;;;;;;;5091554;28;20043;-75
2022/09/25 06:18:07;;;;;;;6.30;3.95;;;;;;;;;;5088943;28;20017;-75
2022/09/25 06:20:34;;;;;;;7.75;3.60;;;;;;;;;;5092919;28;20027;-75
2022/09/25 06:23:00;;;;;;;6.75;4.25;;;;;;;;;;5069318;28;20024;-75
2022/09/25 06:25:28;;;;;;;4.13;3.33;;;;;;;;;;5086653;28;20442;-75
2022/09/25 06:27:54;;;;;;;5.18;3.85;;;;;;;;;;5076336;28;20028;-76
2022/09/25 06:30:21;;;;;;;9.75;4.55;;;;;;;;;;5078894;28;20031;-76
2022/09/25 06:32:49;;;;;;;7.30;4.35;;;;;;;;;;5089954;28;20024;-76
2022/09/25 06:35:16;;;;;;;7.25;4.95;;;;;;;;;;5088979;28;20055;-76
2022/09/25 06:37:42;;;;;;;7.80;4.38;;;;;;;;;;5086443;28;20016;-76
2022/09/25 06:40:08;;;;;;;6.97;4.20;;;;;;;;;;5080406;28;20047;-76
2022/09/25 06:42:34;;;;;;;9.02;4.25;;;;;;;;;;5093368;28;20016;-75
2022/09/25 06:45:01;;;;;;;4.75;3.78;;;;;;;;;;5086720;28;20396;-76
2022/09/25 06:47:27;;;;;;;11.50;4.55;;;;;;;;;;5076798;28;20035;-75
2022/09/25 06:49:53;;;;;;;6.22;3.75;;;;;;;;;;5087862;28;20070;-75
2022/09/25 06:52:19;;;;;;;8.35;4.10;;;;;;;;;;5086998;28;20454;-75
2022/09/25 06:54:45;;;;;;;5.00;4.20;;;;;;;;;;5074766;28;20464;-76
2022/09/25 06:57:11;;;;;;;6.32;4.00;;;;;;;;;;5090135;28;20679;-75
2022/09/25 06:59:38;;;;;;;24.15;4.82;;;;;;;;;;5073717;28;20017;-75
2022/09/25 07:04:50;;;;;;;6.13;3.60;;;;;;;;;;5104335;28;20057;-75
2022/09/25 07:07:18;;;;;;;8.68;3.78;;;;;;;;;;5086264;28;20024;-76
2022/09/25 07:09:44;;;;;;;6.88;3.72;;;;;;;;;;5087026;28;20021;-75
2022/09/25 07:12:10;;;;;;;7.20;3.85;;;;;;;;;;5091538;28;20516;-75
2022/09/25 07:14:37;;;;;;;8.35;4.25;;;;;;;;;;5095059;28;20487;-76
2022/09/25 07:17:03;;;;;;;7.68;3.72;;;;;;;;;;5095245;28;20027;-75
2022/09/25 07:19:29;;;;;;;6.90;3.63;;;;;;;;;;5057782;28;20039;-75
2022/09/25 07:21:55;;;;;;;6.32;3.60;;;;;;;;;;5075582;28;20024;-75
2022/09/25 07:24:22;;;;;;;7.07;3.83;;;;;;;;;;5085314;28;20838;-75
2022/09/25 07:26:48;;;;;;;7.15;4.18;;;;;;;;;;5081406;28;20035;-75
2022/09/25 07:29:15;;;;;;;5.75;3.60;;;;;;;;;;5095787;28;20144;-76
2022/09/25 07:31:42;;;;;;;7.57;4.50;;;;;;;;;;5088498;28;20021;-75
2022/09/25 07:34:08;;;;;;;5.22;3.92;;;;;;;;;;5072348;28;20032;-75
2022/09/25 07:36:37;;;;;;;5.78;3.20;;;;;;;;;;5068762;28;20416;-75
2022/09/25 07:39:03;;;;;;;7.72;3.75;;;;;;;;;;5098315;28;20016;-75
2022/09/25 07:41:29;;;;;;;5.78;3.55;;;;;;;;;;5087122;28;20059;-77
2022/09/25 07:43:56;;;;;;;4.65;3.28;;;;;;;;;;5088527;28;20472;-76
2022/09/25 07:46:27;;;;;;;4.80;3.30;;;;;;;;;;5095414;28;20038;-75
2022/09/25 07:48:53;;;;;;;4.97;3.40;;;;;;;;;;5084902;28;20035;-76
2022/09/25 07:51:22;;;;;;;7.07;3.70;;;;;;;;;;5064929;28;20031;-75
2022/09/25 07:53:49;;;;;;;9.73;3.97;;;;;;;;;;5093474;28;20033;-75
2022/09/25 07:56:16;;;;;;;6.80;3.15;;;;;;;;;;5083842;28;20032;-75
2022/09/25 07:58:42;;;;;;;7.75;3.55;;;;;;;;;;5083622;28;20148;-76
2022/09/25 08:01:11;;;;;;;5.35;3.35;;;;;;;;;;5069441;28;20027;-75
2022/09/25 08:03:37;;;;;;;4.97;3.05;;;;;;;;;;5082482;28;20122;-75
2022/09/25 08:06:09;;;;;;;6.88;3.30;;;;;;;;;;5074395;28;20023;-75
2022/09/25 08:08:35;;;;;;;4.57;2.83;;;;;;;;;;5093929;28;20027;-76
2022/09/25 08:11:02;;;;;;;4.80;3.15;;;;;;;;;;5083314;28;20126;-74
2022/09/25 08:13:29;;;;;;;4.05;3.25;;;;;;;;;;5084336;28;20031;-75
2022/09/25 08:15:55;;;;;;;6.30;3.15;;;;;;;;;;5079413;28;20027;-74
2022/09/25 08:18:21;;;;;;;6.10;3.10;;;;;;;;;;5092663;28;20032;-75
2022/09/25 08:20:47;;;;;;;9.18;3.20;;;;;;;;;;5071841;28;20031;-75
2022/09/25 08:23:13;;;;;;;4.75;3.65;;;;;;;;;;5093697;28;20026;-75
2022/09/25 08:25:40;;;;;;;4.47;3.33;;;;;;;;;;5096569;28;20044;-75
2022/09/25 08:28:06;;;;;;;7.57;3.72;;;;;;;;;;5094827;28;20036;-75
2022/09/25 08:30:33;;;;;;;7.20;3.42;;;;;;;;;;5078215;28;20035;-75
2022/09/25 08:32:59;;;;;;;6.22;3.38;;;;;;;;;;5097610;28;20071;-76
2022/09/25 08:35:26;;;;;;;3.80;2.88;;;;;;;;;;5106887;28;20028;-75
2022/09/25 08:37:53;;;;;;;6.50;3.30;;;;;;;;;;5106015;28;20043;-75
2022/09/25 08:40:25;;;;;;;5.40;3.15;;;;;;;;;;5086494;28;20017;-76
2022/09/25 08:42:52;;;;;;;7.15;3.97;;;;;;;;;;5073061;28;20028;-75
2022/09/25 08:51:04;;;;;;;6.10;3.00;;;;;;;;;;5099290;28;20035;-76
2022/09/25 08:53:33;;;;;;;5.63;3.05;;;;;;;;;;5091474;28;20564;-75
2022/09/25 08:56:18;;;;;;;4.18;2.40;;;;;;;;;;5076371;28;20024;-75
2022/09/25 08:58:46;;;;;;;6.22;2.97;;;;;;;;;;5092321;28;20490;-75
2022/09/25 09:01:15;;;;;;;5.55;3.00;;;;;;;;;;5083756;28;20368;-76
2022/09/25 09:03:48;;;;;;;4.85;2.67;;;;;;;;;;5097120;28;20099;-75
2022/09/25 09:06:16;;;;;;;8.02;2.97;;;;;;;;;;5077618;28;20058;-75
2022/09/25 09:08:46;;;;;;;6.20;2.72;;;;;;;;;;5079944;28;20072;-75
2022/09/25 09:11:18;;;;;;;5.55;2.80;;;;;;;;;;5074377;28;20106;-75
2022/09/25 09:13:48;;;;;;;4.38;3.00;;;;;;;;;;5082831;28;20171;-75
2022/09/25 09:16:23;;;;;;;7.70;3.00;;;;;;;;;;5069787;28;20011;-75
2022/09/25 09:18:49;;;;;;;4.70;2.85;;;;;;;;;;5078643;28;20028;-75
2022/09/25 09:21:34;;;;;;;5.93;2.90;;;;;;;;;;5079899;28;20012;-76
2022/09/25 09:24:06;;;;;;;4.80;2.92;;;;;;;;;;5101713;28;20084;-75
2022/09/25 09:26:44;;;;;;;3.50;2.63;;;;;;;;;;5091693;28;20052;-75
2022/09/25 09:29:20;;;;;;;4.90;2.90;;;;;;;;;;5093334;28;20107;-76
2022/09/25 09:31:58;;;;;;;8.82;3.20;;;;;;;;;;5096672;28;20032;-75
2022/09/25 09:34:35;;;;;;;7.13;3.03;;;;;;;;;;5066816;28;20039;-76
2022/09/25 09:37:19;;;;;;;8.27;2.90;;;;;;;;;;5088818;28;20036;-76
2022/09/25 09:39:51;;;;;;;7.47;2.95;;;;;;;;;;5097674;28;20043;-74
2022/09/25 09:42:27;;;;;;;5.97;3.47;;;;;;;;;;5065242;28;20039;-76
2022/09/25 09:45:16;;;;;;;4.22;3.17;;;;;;;;;;5082093;28;20584;-75
2022/09/25 09:47:42;;;;;;;5.70;3.05;;;;;;;;;;5073441;28;20056;-75
2022/09/25 09:50:11;;;;;;;5.70;3.20;;;;;;;;;;5079994;28;20036;-75
2022/09/25 09:52:39;;;;;;;3.80;2.90;;;;;;;;;;5093800;28;20036;-75
2022/09/25 09:55:25;;;;;;;6.65;3.58;;;;;;;;;;5097414;28;20071;-75
2022/09/25 09:57:56;;;;;;;8.13;3.28;;;;;;;;;;5087980;28;20063;-77
2022/09/25 10:00:23;;;;;;;7.78;2.92;;;;;;;;;;5088703;28;20035;-75
2022/09/25 10:03:07;;;;;;;5.55;3.53;;;;;;;;;;5059793;28;20058;-76
2022/09/25 10:05:37;;;;;;;4.47;3.60;;;;;;;;;;5094827;28;20075;-76
2022/09/25 10:08:03;;;;;;;4.80;3.10;;;;;;;;;;5071548;28;20093;-76
2022/09/25 10:10:37;;;;;;;7.82;3.63;;;;;;;;;;5069279;28;20035;-76
2022/09/25 10:13:06;;;;;;;6.18;2.65;;;;;;;;;;5088252;28;20145;-76
2022/09/25 10:16:02;;;;;;;7.10;3.20;;;;;;;;;;5088153;28;20156;-76
2022/09/25 10:18:31;;;;;;;5.30;2.83;;;;;;;;;;5085897;28;20037;-76
2022/09/25 10:21:23;;;;;;;3.38;2.70;;;;;;;;;;5089973;28;20103;-76
2022/09/25 10:23:51;;;;;;;7.50;3.78;;;;;;;;;;5052485;28;20040;-76
2022/09/25 10:26:37;;;;;;;4.28;2.40;;;;;;;;;;5068357;28;20036;-75
2022/09/25 10:29:23;;;;;;;4.50;2.45;;;;;;;;;;5072658;28;20407;-76
2022/09/25 10:31:58;;;;;;;3.53;2.40;;;;;;;;;;5095948;28;20028;-76
2022/09/25 10:34:27;;;;;;;4.18;2.60;;;;;;;;;;5075143;28;20032;-76
2022/09/25 10:36:53;;;;;;;7.22;2.50;;;;;;;;;;5076569;28;20067;-76
2022/09/25 10:39:30;;;;;;;3.42;2.58;;;;;;;;;;5092143;28;20019;-76
2022/09/25 10:42:00;;;;;;;5.65;2.83;;;;;;;;;;5073563;28;20743;-77
2022/09/25 10:44:33;;;;;;;4.55;2.70;;;;;;;;;;5089370;28;20734;-75
2022/09/25 10:50:22;;;;;;;5.20;2.53;;;;;;;;;;5096644;28;20189;-75
2022/09/25 10:52:50;;;;;;;4.20;2.42;;;;;;;;;;5062071;28;20598;-74
2022/09/25 10:55:36;;;;;;;4.10;2.70;;;;;;;;;;5076912;28;20030;-76
2022/09/25 10:58:14;;;;;;;5.65;3.47;;;;;;;;;;5091939;28;20035;-76
2022/09/25 11:00:46;;;;;;;4.53;2.92;;;;;;;;;;5091948;28;20020;-76
2022/09/25 11:03:21;;;;;;;2.85;2.33;;;;;;;;;;5088721;28;20029;-75
2022/09/25 11:05:51;;;;;;;2.95;2.40;;;;;;;;;;5075351;28;20115;-76
2022/09/25 11:08:17;;;;;;;6.10;2.30;;;;;;;;;;5078865;28;20542;-76
2022/09/25 11:10:52;;;;;;;3.83;2.33;;;;;;;;;;5089785;28;20027;-76
2022/09/25 11:13:19;;;;;;;;;;;;;;;;;;5075040;28;20053;-75
2022/09/25 11:15:47;;;;;;;4.47;2.05;;;;;;;;;;5085567;28;19908;-76
2022/09/25 11:18:33;;;;;;;7.70;2.38;;;;;;;;;;5069574;28;20027;-75
2022/09/25 11:21:03;;;;;;;2.35;2.08;;;;;;;;;;5082501;28;20505;-76
2022/09/25 11:23:34;;;;;;;4.22;2.20;;;;;;;;;;5064802;28;20112;-76
2022/09/25 11:26:00;;;;;;;3.10;2.08;;;;;;;;;;5058590;28;20091;-76
2022/09/25 11:28:33;;;;;;;4.90;2.30;;;;;;;;;;5055092;28;20044;-75
2022/09/25 11:31:03;;;;;;;2.58;1.92;;;;;;;;;;5052161;28;20043;-76
2022/09/25 11:33:41;;;;;;;2.53;2.22;;;;;;;;;;5049545;28;20025;-75
2022/09/25 11:36:18;;;;;;;2.30;1.90;;;;;;;;;;5054781;28;20469;-75
2022/09/25 11:41:35;;;;;;;4.93;2.95;;;;;;;;;;5054320;28;20047;-76
2022/09/25 11:44:06;;;;;;;2.38;1.75;;;;;;;;;;5056086;28;20041;-76
2022/09/25 11:46:38;;;;;;;2.45;1.95;;;;;;;;;;5053421;28;20501;-76
2022/09/25 11:49:04;;;;;;;2.70;1.80;;;;;;;;;;5048946;28;20861;-76
2022/09/25 11:51:45;;;;;;;2.10;1.77;;;;;;;;;;5050640;28;20029;-76
2022/09/25 11:54:21;;;;;;;2.30;1.70;;;;;;;;;;5050820;28;20036;-76
2022/09/25 11:57:14;;;;;;;3.33;2.38;;;;;;;;;;5045853;28;20031;-76
2022/09/25 11:59:59;;;;;;;2.00;1.80;;;;;;;;;;5040515;28;20408;-76
2022/09/25 12:02:25;;;;;;;1.83;1.73;;;;;;;;;;5049030;28;20021;-76
2022/09/25 12:05:06;;;;;;;1.80;1.70;;;;;;;;;;5073527;28;20029;-75
2022/09/25 12:07:46;;;;;;;1.92;1.73;;;;;;;;;;5062516;28;20113;-76
2022/09/25 12:10:16;;;;;;;2.75;1.80;;;;;;;;;;5055682;28;20128;-75
2022/09/25 12:12:57;;;;;;;2.00;1.60;;;;;;;;;;5061213;28;20079;-76
2022/09/25 12:15:50;;;;;;;2.13;1.77;;;;;;;;;;5057995;28;20093;-76
2022/09/25 12:18:16;;;;;;;2.78;1.90;;;;;;;;;;5048503;28;20028;-76
2022/09/25 12:21:00;;;;;;;3.55;2.10;;;;;;;;;;5060117;28;20029;-75
2022/09/25 12:23:26;;;;;;;2.08;1.75;;;;;;;;;;5057182;28;20025;-76
2022/09/25 12:26:11;;;;;;;4.20;1.80;;;;;;;;;;5049700;28;20052;-75
2022/09/25 12:28:51;;;;;;;2.38;1.90;;;;;;;;;;5051153;28;20078;-75
2022/09/25 12:31:23;;;;;;;2.83;1.92;;;;;;;;;;5058447;28;20027;-75
2022/09/25 12:33:57;;;;;;;4.05;2.10;;;;;;;;;;5051308;28;20028;-74
2022/09/25 12:36:36;;;;;;;3.83;2.33;;;;;;;;;;5061211;28;20029;-76
2022/09/25 12:39:08;;;;;;;4.07;1.98;;;;;;;;;;5054032;28;20051;-75
2022/09/25 12:41:41;;;;;;;3.20;1.70;;;;;;;;;;5052113;28;20037;-76
2022/09/25 12:44:23;;;;;;;2.67;1.90;;;;;;;;;;5040559;28;20034;-75
2022/09/25 12:46:54;;;;;;;2.95;2.00;;;;;;;;;;5048244;28;20532;-76
2022/09/25 12:49:26;;;;;;;2.60;2.00;;;;;;;;;;5050712;28;20481;-75
2022/09/25 12:51:55;;;;;;;2.83;1.90;;;;;;;;;;5051898;28;20021;-75
2022/09/25 12:54:38;;;;;;;2.55;1.75;;;;;;;;;;5048522;28;20029;-75
2022/09/25 12:57:22;;;;;;;1.85;1.70;;;;;;;;;;5054508;28;20043;-75
2022/09/25 12:59:52;;;;;;;3.85;2.33;;;;;;;;;;5043423;28;20052;-75
2022/09/25 13:02:21;;;;;;;2.20;1.50;;;;;;;;;;5050239;28;20788;-75
2022/09/25 13:04:47;;;;;;;3.17;1.98;;;;;;;;;;5050332;28;20017;-75
2022/09/25 13:07:22;;;;;;;2.45;1.70;;;;;;;;;;5042730;28;20017;-76
2022/09/25 13:09:48;;;;;;;;;;;;;;;;;;5051886;28;20021;-75
2022/09/25 13:12:17;;;;;;;2.70;1.70;;;;;;;;;;5048689;28;20347;-76
2022/09/25 13:15:03;;;;;;;1.92;1.67;;;;;;;;;;5056696;28;20021;-76
2022/09/25 13:17:30;;;;;;;2.22;2.00;;;;;;;;;;5048819;28;20031;-76
2022/09/25 13:20:16;;;;;;;1.80;1.65;;;;;;;;;;5051536;28;20597;-76
2022/09/25 13:22:42;;;;;;;3.60;2.10;;;;;;;;;;5051704;28;20040;-76
2022/09/25 13:25:14;;;;;;;3.58;2.20;;;;;;;;;;5056799;28;20048;-76
2022/09/25 13:27:42;;;;;;;2.00;1.75;;;;;;;;;;5098170;28;20507;-76
2022/09/25 13:30:19;;;;;;;4.22;1.85;;;;;;;;;;5091116;28;20033;-76
2022/09/25 13:32:50;;;;;;;2.47;1.80;;;;;;;;;;5090748;28;20028;-75
2022/09/25 13:35:17;;;;;;;2.95;1.90;;;;;;;;;;5093058;28;20035;-76
2022/09/25 13:37:44;;;;;;;3.47;1.90;;;;;;;;;;5083741;28;20080;-75
2022/09/25 13:43:23;;;;;;;3.83;1.83;;;;;;;;;;5090622;28;20137;-76
2022/09/25 13:46:09;;;;;;;3.45;2.08;;;;;;;;;;5064268;28;20502;-75
2022/09/25 13:48:36;;;;;;;2.70;1.90;;;;;;;;;;5082139;28;20036;-75
2022/09/25 13:51:18;;;;;;;3.30;1.80;;;;;;;;;;5066122;28;20036;-76
2022/09/25 13:54:03;;;;;;;1.80;1.70;;;;;;;;;;5090062;28;20035;-76
2022/09/25 13:56:41;;;;;;;2.53;1.90;;;;;;;;;;5089227;28;20535;-75
2022/09/25 13:59:14;;;;;;;2.15;1.75;;;;;;;;;;5085697;28;20035;-75
2022/09/25 14:02:15;;;;;;;2.97;1.70;;;;;;;;;;5069574;28;20825;-74
2022/09/25 14:04:47;;;;;;;3.13;2.03;;;;;;;;;;5073881;28;20821;-76
2022/09/25 14:07:18;;;;;;;2.42;1.80;;;;;;;;;;5078836;28;20028;-75
2022/09/25 14:09:52;;;;;;;2.90;1.85;;;;;;;;;;5091489;28;20476;-75
2022/09/25 14:12:31;;;;;;;2.05;1.73;;;;;;;;;;5072806;28;20468;-75
2022/09/25 14:14:57;;;;;;;3.00;2.58;;;;;;;;;;5080171;28;20032;-75
2022/09/25 14:17:24;;;;;;;6.30;4.53;;;;;;;;;;5058454;28;20031;-75
2022/09/25 14:19:54;;;;;;;4.43;3.05;;;;;;;;;;5082294;28;20377;-75
2022/09/25 14:22:27;;;;;;;3.53;2.58;;;;;;;;;;5090583;28;20059;-75
2022/09/25 14:24:53;;;;;;;3.00;2.05;;;;;;;;;;5084576;28;20027;-75
2022/09/25 14:27:25;;;;;;;2.30;2.00;;;;;;;;;;5080055;28;20056;-75
2022/09/25 14:29:51;;;;;;;6.85;6.03;;;;;;;;;;5068235;28;20483;-75
2022/09/25 14:32:22;;;;;;;2.28;1.92;;;;;;;;;;5080152;28;20028;-75
2022/09/25 14:35:08;;;;;;;2.97;1.90;;;;;;;;;;5082970;28;20027;-75
2022/09/25 14:37:34;;;;;;;5.13;2.00;;;;;;;;;;5079083;28;20021;-75
2022/09/25 14:40:25;;;;;;;2.00;1.80;;;;;;;;;;5075883;28;20050;-75
2022/09/25 14:43:06;;;;;;;4.00;1.92;;;;;;;;;;5083028;28;20034;-76
2022/09/25 14:45:51;;;;;;;2.35;1.70;;;;;;;;;;5070268;28;20096;-75
2022/09/25 14:48:19;;;;;;;2.10;1.80;;;;;;;;;;5088746;28;20040;-75
2022/09/25 14:50:48;;;;;;;2.85;2.20;;;;;;;;;;5084871;28;20115;-75
2022/09/25 14:53:21;;;;;;;4.68;2.00;;;;;;;;;;5079034;28;20025;-75
2022/09/25 14:55:51;;;;;;;2.08;1.70;;;;;;;;;;5066514;28;20567;-75
2022/09/25 14:58:20;;;;;;;2.80;1.80;;;;;;;;;;5088088;28;20051;-75
2022/09/25 15:00:48;;;;;;;1.80;1.70;;;;;;;;;;5072673;28;20032;-75
2022/09/25 15:03:15;;;;;;;2.17;1.70;;;;;;;;;;5079775;28;20031;-75
2022/09/25 15:05:46;;;;;;;3.92;2.00;;;;;;;;;;5085046;28;20116;-75
2022/09/25 15:08:19;;;;;;;3.17;1.83;;;;;;;;;;5070650;28;20662;-75
2022/09/25 15:10:45;;;;;;;5.15;1.77;;;;;;;;;;5064064;28;20075;-76
2022/09/25 15:13:12;;;;;;;3.35;1.80;;;;;;;;;;5087098;28;20032;-75
2022/09/25 15:15:38;;;;;;;4.25;2.03;;;;;;;;;;5087276;28;20059;-75
2022/09/25 15:18:08;;;;;;;2.50;2.10;;;;;;;;;;5064260;28;20028;-75
2022/09/25 15:20:35;;;;;;;2.30;2.00;;;;;;;;;;5080988;28;20456;-74
2022/09/25 15:23:03;;;;;;;2.20;1.85;;;;;;;;;;5084787;28;20028;-76
2022/09/25 15:25:34;;;;;;;3.42;2.70;;;;;;;;;;5070038;28;20024;-81
2022/09/25 15:28:04;;;;;;;2.72;2.38;;;;;;;;;;5066765;28;20036;-76